Time;durP1;ratioP1;P1;durP2;ratioP2;P2;SDS_P1;SDS_P2;PMS_P1;PMS_P2;Temp;Humidity;BMP_temperature;BMP_pressure;BME280_temperature;BME280_humidity;BME280_pressure;Samples;Min_cycle;Max_cycle;Signal;HPM_P1;HPM_P2
2022/01/09 00:02:24;;;;;;;;;;;;;;;3.80;76.79;99202.47;7365003;19;19926;-56
2022/01/09 00:04:50;;;;;;;;;;;;;;;3.80;76.59;99215.38;7368217;19;19944;-58
2022/01/09 00:07:15;;;;;;;;;;;;;;;3.78;76.53;99211.94;7369555;19;19922;-58
2022/01/09 00:09:43;;;;;;;;;;;;;;;3.79;76.97;99212.78;7367412;19;19914;-58
2022/01/09 00:12:08;;;;;;;;;;;;;;;3.78;76.62;99222.28;7364772;19;19910;-58
2022/01/09 00:14:33;;;;;;;;;;;;;;;3.79;76.76;99226.56;7365309;19;19935;-58
2022/01/09 00:16:59;;;;;;;;;;;;;;;3.77;76.83;99215.41;7367951;19;19923;-58
2022/01/09 00:19:25;;;;;;;;;;;;;;;3.77;76.98;99230.91;7366253;19;20317;-57
2022/01/09 00:21:50;;;;;;;;;;;;;;;3.77;76.81;99233.47;7363080;19;19939;-57
2022/01/09 00:24:16;;;;;;;;;;;;;;;3.76;76.93;99229.22;7368383;19;19935;-58
2022/01/09 00:26:41;;;;;;;;;;;;;;;3.76;76.91;99239.53;7366419;19;19926;-56
2022/01/09 00:29:07;;;;;;;;;;;;;;;3.75;76.79;99243.00;7369283;19;19945;-57
2022/01/09 00:31:32;;;;;;;;;;;;;;;3.74;76.87;99238.69;7366567;19;19947;-59
2022/01/09 00:33:58;;;;;;;;;;;;;;;3.75;76.91;99247.28;7360793;19;20470;-57
2022/01/09 00:36:23;;;;;;;;;;;;;;;3.73;76.62;99244.75;7359405;19;19918;-58
2022/01/09 00:38:48;;;;;;;;;;;;;;;3.72;76.59;99231.88;7369316;19;19922;-57
2022/01/09 00:41:14;;;;;;;;;;;;;;;3.72;76.92;99227.56;7359078;19;19919;-58
2022/01/09 00:43:39;;;;;;;;;;;;;;;3.70;76.90;99224.16;7361123;19;19927;-58
2022/01/09 00:46:05;;;;;;;;;;;;;;;3.69;76.66;99226.75;7367573;19;19933;-58
2022/01/09 00:48:30;;;;;;;;;;;;;;;3.67;76.98;99224.22;7364620;19;19918;-59
2022/01/09 00:50:55;;;;;;;;;;;;;;;3.67;76.68;99223.38;7368614;19;19957;-58
2022/01/09 00:53:21;;;;;;;;;;;;;;;3.64;76.47;99225.09;7367427;19;19926;-58
2022/01/09 00:55:46;;;;;;;;;;;;;;;3.62;76.46;99218.28;7366182;19;19917;-58
2022/01/09 00:58:11;;;;;;;;;;;;;;;3.60;76.55;99208.00;7368345;19;19911;-56
2022/01/09 01:00:39;;;;;;;;;;;;;;;3.60;76.69;99222.63;7367522;19;19924;-58
2022/01/09 01:03:04;;;;;;;;;;;;;;;3.58;77.04;99232.97;7360189;19;19939;-59
2022/01/09 01:05:29;;;;;;;;;;;;;;;3.58;77.16;99219.22;7368547;19;20273;-58
2022/01/09 01:07:55;;;;;;;;;;;;;;;3.58;77.02;99238.13;7365408;19;19919;-57
2022/01/09 01:10:20;;;;;;;;;;;;;;;3.58;77.11;99235.53;7367522;19;19970;-58
2022/01/09 01:12:45;;;;;;;;;;;;;;;3.60;77.32;99238.97;7359576;19;20259;-57
2022/01/09 01:15:12;;;;;;;;;;;;;;;3.62;77.16;99241.50;7363442;19;19926;-58
2022/01/09 01:17:38;;;;;;;;;;;;;;;3.66;77.49;99253.50;7363530;19;20468;-59
2022/01/09 01:20:04;;;;;;;;;;;;;;;3.68;77.54;99246.56;7365469;19;19918;-59
2022/01/09 01:22:30;;;;;;;;;;;;;;;3.69;77.49;99245.66;7362402;19;20014;-57
2022/01/09 01:24:57;;;;;;;;;;;;;;;3.73;77.27;99244.75;7365812;19;20001;-57
2022/01/09 01:27:22;;;;;;;;;;;;;;;3.74;77.11;99256.75;7367997;19;19922;-57
2022/01/09 01:29:47;;;;;;;;;;;;;;;3.74;77.22;99236.09;7364510;19;19914;-57
2022/01/09 01:32:13;;;;;;;;;;;;;;;3.75;76.98;99232.69;7363863;19;20267;-58
2022/01/09 01:34:38;;;;;;;;;;;;;;;3.76;77.17;99230.94;7365684;19;20398;-57
2022/01/09 01:37:03;;;;;;;;;;;;;;;3.76;77.19;99247.28;7362599;19;20364;-58
2022/01/09 01:39:29;;;;;;;;;;;;;;;3.76;76.99;99234.38;7367184;19;19923;-58
2022/01/09 01:41:54;;;;;;;;;;;;;;;3.77;76.93;99235.22;7364484;19;19927;-57
2022/01/09 01:44:19;;;;;;;;;;;;;;;3.76;77.21;99231.78;7366902;19;19921;-57
2022/01/09 01:46:45;;;;;;;;;;;;;;;3.77;77.09;99254.13;7362630;19;19966;-58
2022/01/09 01:49:11;;;;;;;;;;;;;;;3.77;77.00;99240.38;7363680;19;20864;-58
2022/01/09 01:51:38;;;;;;;;;;;;;;;3.77;77.41;99251.56;7364468;19;21289;-58
2022/01/09 01:54:04;;;;;;;;;;;;;;;3.77;76.99;99242.97;7357836;19;19935;-59
2022/01/09 01:56:29;;;;;;;;;;;;;;;3.76;77.37;99255.03;7365921;19;19918;-58
2022/01/09 01:58:55;;;;;;;;;;;;;;;3.77;77.09;99250.72;7365194;19;19914;-57
2022/01/09 02:01:21;;;;;;;;;;;;;;;3.64;77.30;99240.59;7361316;19;19922;-59
2022/01/09 02:03:46;;;;;;;;;;;;;;;3.77;77.13;99256.72;7366280;19;19926;-58
2022/01/09 02:06:14;;;;;;;;;;;;;;;3.79;77.41;99267.00;7362115;19;20370;-58
2022/01/09 02:08:40;;;;;;;;;;;;;;;3.79;77.23;99264.44;7359269;19;20625;-57
2022/01/09 02:11:06;;;;;;;;;;;;;;;3.79;76.99;99269.59;7363032;19;19922;-58
2022/01/09 02:13:31;;;;;;;;;;;;;;;3.78;77.45;99279.06;7364991;19;19926;-59
2022/01/09 02:15:59;;;;;;;;;;;;;;;3.79;77.03;99254.09;7365260;19;19955;-57
2022/01/09 02:18:24;;;;;;;;;;;;;;;3.81;77.51;99262.69;7362860;19;20336;-58
2022/01/09 02:20:50;;;;;;;;;;;;;;;3.81;77.44;99247.19;7362844;19;19919;-58
2022/01/09 02:23:16;;;;;;;;;;;;;;;3.81;77.15;99255.78;7364785;19;19923;-58
2022/01/09 02:25:43;;;;;;;;;;;;;;;3.82;77.05;99259.22;7363974;19;20512;-58
2022/01/09 02:28:09;;;;;;;;;;;;;;;3.81;76.95;99255.78;7364938;19;21017;-56
2022/01/09 02:30:35;;;;;;;;;;;;;;;3.81;77.13;99260.09;7364291;19;19930;-58
2022/01/09 02:33:01;;;;;;;;;;;;;;;3.80;77.15;99264.44;7361156;19;19961;-57
2022/01/09 02:35:27;;;;;;;;;;;;;;;3.81;77.22;99258.38;7361586;19;19930;-56
2022/01/09 02:37:52;;;;;;;;;;;;;;;3.80;76.99;99254.09;7364743;19;19922;-57
2022/01/09 02:40:18;;;;;;;;;;;;;;;3.80;77.23;99246.34;7363774;19;19918;-58
2022/01/09 02:42:43;;;;;;;;;;;;;;;3.80;77.11;99251.50;7362548;19;19922;-57
2022/01/09 02:45:09;;;;;;;;;;;;;;;3.81;77.04;99248.03;7360100;19;19926;-57
2022/01/09 02:47:36;;;;;;;;;;;;;;;3.81;77.26;99242.88;7360365;19;20018;-58
2022/01/09 02:50:12;;;;;;;;;;;;;;;3.80;77.09;99246.34;7362361;19;19949;-57
2022/01/09 02:52:51;;;;;;;;;;;;;;;3.80;77.13;99261.84;7365432;19;19926;-55
2022/01/09 02:55:16;;;;;;;;;;;;;;;3.80;77.09;99267.00;7358468;19;19974;-57
2022/01/09 02:57:43;;;;;;;;;;;;;;;3.80;77.33;99261.84;7360507;19;19953;-57
2022/01/09 03:00:10;;;;;;;;;;;;;;;3.80;77.28;99245.47;7360080;19;19918;-57
2022/01/09 03:02:36;;;;;;;;;;;;;;;3.80;77.55;99260.97;7359521;19;20346;-59
2022/01/09 03:05:02;;;;;;;;;;;;;;;3.81;77.38;99247.19;7364213;19;19910;-57
2022/01/09 03:07:27;;;;;;;;;;;;;;;3.81;77.27;99266.13;7360599;19;19918;-58
2022/01/09 03:09:52;;;;;;;;;;;;;;;3.83;77.41;99273.81;7347944;19;19922;-58
2022/01/09 03:12:17;;;;;;;;;;;;;;;3.83;77.84;99248.84;7363913;19;19943;-57
2022/01/09 03:14:43;;;;;;;;;;;;;;;3.84;77.67;99258.31;7354812;19;19933;-59
2022/01/09 03:17:08;;;;;;;;;;;;;;;3.84;77.42;99258.31;7357912;19;19951;-59
2022/01/09 03:19:33;;;;;;;;;;;;;;;3.82;77.83;99257.50;7359133;19;19938;-57
2022/01/09 03:21:59;;;;;;;;;;;;;;;3.86;77.76;99261.72;7361953;19;19915;-57
2022/01/09 03:24:24;;;;;;;;;;;;;;;3.88;77.73;99244.47;7355783;19;19915;-57
2022/01/09 03:26:49;;;;;;;;;;;;;;;3.88;77.82;99241.03;7359936;19;20382;-58
2022/01/09 03:29:15;;;;;;;;;;;;;;;3.88;77.72;99254.78;7363519;19;19914;-58
2022/01/09 03:31:40;;;;;;;;;;;;;;;3.89;77.73;99251.31;7359731;19;19914;-57
2022/01/09 03:34:05;;;;;;;;;;;;;;;3.89;77.68;99243.56;7360580;19;19923;-57
2022/01/09 03:36:30;;;;;;;;;;;;;;;3.89;77.82;99230.66;7362838;19;19925;-57
2022/01/09 03:38:56;;;;;;;;;;;;;;;3.90;77.31;99250.47;7364452;19;19915;-57
2022/01/09 03:41:21;;;;;;;;;;;;;;;3.90;77.51;99258.22;7357407;19;19934;-58
2022/01/09 03:43:46;;;;;;;;;;;;;;;3.89;77.39;99266.81;7359622;19;19917;-57
2022/01/09 03:46:11;;;;;;;;;;;;;;;3.89;77.67;99274.56;7363456;19;19918;-57
2022/01/09 03:48:37;;;;;;;;;;;;;;;3.89;77.60;99282.31;7351853;19;19985;-57
2022/01/09 03:51:03;;;;;;;;;;;;;;;3.90;77.39;99278.88;7359396;19;19922;-59
2022/01/09 03:53:30;;;;;;;;;;;;;;;3.89;77.41;99266.81;7356639;19;19919;-58
2022/01/09 03:55:55;;;;;;;;;;;;;;;3.90;77.85;99268.53;7360516;19;20688;-57
2022/01/09 03:58:21;;;;;;;;;;;;;;;3.90;77.64;99242.72;7361624;19;20305;-57
2022/01/09 04:00:46;;;;;;;;;;;;;;;3.91;77.53;99243.56;7362677;19;19951;-56
2022/01/09 04:03:11;;;;;;;;;;;;;;;3.91;77.90;99230.66;7353645;19;19925;-59
2022/01/09 04:05:37;;;;;;;;;;;;;;;3.93;77.62;99238.34;7354359;19;19920;-58
2022/01/09 04:08:02;;;;;;;;;;;;;;;3.94;77.67;99258.13;7354613;19;19910;-58
2022/01/09 04:10:29;;;;;;;;;;;;;;;3.93;77.63;99277.09;7359756;19;19929;-56
2022/01/09 04:12:59;;;;;;;;;;;;;;;3.94;77.97;99264.16;7353528;19;19921;-58
2022/01/09 04:15:25;;;;;;;;;;;;;;;3.95;77.85;99276.16;7355676;19;19936;-58
2022/01/09 04:17:55;;;;;;;;;;;;;;;3.95;77.52;99267.56;7367050;19;19919;-57
2022/01/09 04:20:24;;;;;;;;;;;;;;;3.96;77.90;99282.22;7360484;19;19927;-57
2022/01/09 04:22:50;;;;;;;;;;;;;;;3.95;77.59;99288.25;7362713;19;20646;-58
2022/01/09 04:25:15;;;;;;;;;;;;;;;3.95;77.78;99280.50;7365379;19;19946;-58
2022/01/09 04:27:41;;;;;;;;;;;;;;;3.96;77.67;99266.72;7366232;19;19906;-57
2022/01/09 04:30:07;;;;;;;;;;;;;;;3.95;77.33;99277.91;7367542;19;19918;-58
2022/01/09 04:32:32;;;;;;;;;;;;;;;3.94;77.31;99278.78;7360647;19;20630;-57
2022/01/09 04:34:58;;;;;;;;;;;;;;;3.93;77.57;99283.09;7364327;19;20724;-56
2022/01/09 04:37:24;;;;;;;;;;;;;;;3.92;77.64;99280.56;7363626;19;19910;-56
2022/01/09 04:39:51;;;;;;;;;;;;;;;3.91;77.31;99295.22;7362213;19;19918;-57
2022/01/09 04:42:16;;;;;;;;;;;;;;;3.88;77.28;99265.13;7361049;19;20066;-57
2022/01/09 04:44:42;;;;;;;;;;;;;;;3.88;77.52;99279.75;7364299;19;19919;-57
2022/01/09 04:47:12;;;;;;;;;;;;;;;3.86;77.61;99277.22;7363881;19;19929;-57
2022/01/09 04:49:40;;;;;;;;;;;;;;;3.84;77.28;99263.47;7362136;19;19952;-58
2022/01/09 04:52:08;;;;;;;;;;;;;;;3.85;77.51;99270.34;7363626;19;20001;-58
2022/01/09 04:54:33;;;;;;;;;;;;;;;3.83;77.42;99256.59;7365581;19;19932;-58
2022/01/09 04:57:01;;;;;;;;;;;;;;;3.83;77.77;99264.34;7363322;19;19923;-57
2022/01/09 04:59:26;;;;;;;;;;;;;;;3.83;77.64;99272.09;7360275;19;19915;-57
2022/01/09 05:01:52;;;;;;;;;;;;;;;3.83;77.70;99279.00;7362708;19;19915;-57
2022/01/09 05:04:17;;;;;;;;;;;;;;;3.83;77.88;99277.25;7363389;19;19975;-58
2022/01/09 05:06:42;;;;;;;;;;;;;;;3.85;78.10;99280.69;7362889;19;20006;-57
2022/01/09 05:09:09;;;;;;;;;;;;;;;3.86;77.81;99276.38;7365477;19;19946;-57
2022/01/09 05:11:34;;;;;;;;;;;;;;;3.88;78.14;99252.19;7363457;19;19947;-58
2022/01/09 05:13:59;;;;;;;;;;;;;;;3.92;78.57;99259.91;7363383;19;19922;-58
2022/01/09 05:16:25;;;;;;;;;;;;;;;3.96;78.50;99246.06;7363965;19;19926;-57
2022/01/09 05:18:58;;;;;;;;;;;;;;;4.00;78.36;99239.94;7362679;19;19963;-58
2022/01/09 05:21:23;;;;;;;;;;;;;;;4.05;78.21;99251.03;7361378;19;20013;-57
2022/01/09 05:23:49;;;;;;;;;;;;;;;4.09;78.42;99263.00;7364152;19;19994;-57
2022/01/09 05:26:14;;;;;;;;;;;;;;;4.16;78.46;99267.19;7362999;19;20365;-57
2022/01/09 05:28:40;;;;;;;;;;;;;;;4.21;78.61;99304.13;7362309;19;20328;-57
2022/01/09 05:31:05;;;;;;;;;;;;;;;4.27;78.71;99275.56;7359942;19;19930;-57
2022/01/09 05:33:30;;;;;;;;;;;;;;;4.34;78.70;99284.88;7361198;19;19932;-57
2022/01/09 05:35:56;;;;;;;;;;;;;;;4.38;78.65;99289.13;7360607;19;19938;-58
2022/01/09 05:38:21;;;;;;;;;;;;;;;4.43;78.58;99274.38;7361673;19;19930;-59
2022/01/09 05:40:46;;;;;;;;;;;;;;;4.47;78.44;99279.50;7364780;19;19927;-59
2022/01/09 05:43:13;;;;;;;;;;;;;;;4.51;78.46;99265.59;7362004;19;19925;-59
2022/01/09 05:45:38;;;;;;;;;;;;;;;4.53;78.37;99290.53;7361410;19;19938;-57
2022/01/09 05:48:03;;;;;;;;;;;;;;;4.56;78.18;99274.97;7362733;19;20267;-57
2022/01/09 05:50:29;;;;;;;;;;;;;;;4.59;78.01;99276.63;7364652;19;19970;-58
2022/01/09 05:52:54;;;;;;;;;;;;;;;4.61;78.33;99254.16;7360806;19;19965;-59
2022/01/09 05:55:19;;;;;;;;;;;;;;;4.63;77.83;99268.78;7360735;19;19933;-58
2022/01/09 05:57:47;;;;;;;;;;;;;;;4.66;77.73;99270.44;7363274;19;19926;-57
2022/01/09 06:00:14;;;;;;;;;;;;;;;4.67;78.19;99272.16;7359494;19;19918;-57
2022/01/09 06:02:40;;;;;;;;;;;;;;;4.68;78.02;99284.19;7363248;19;19935;-57
2022/01/09 06:05:07;;;;;;;;;;;;;;;4.69;78.10;99288.47;7361278;19;19914;-59
2022/01/09 06:07:32;;;;;;;;;;;;;;;4.69;78.12;99296.25;7361891;19;19939;-58
2022/01/09 06:09:57;;;;;;;;;;;;;;;4.70;78.06;99279.84;7362354;19;19930;-57
2022/01/09 06:12:23;;;;;;;;;;;;;;;4.70;77.86;99277.25;7356039;19;19922;-58
2022/01/09 06:14:48;;;;;;;;;;;;;;;4.71;77.83;99281.53;7364910;19;19922;-59
2022/01/09 06:17:13;;;;;;;;;;;;;;;4.71;78.02;99273.78;7354257;19;19954;-59
2022/01/09 06:19:39;;;;;;;;;;;;;;;4.71;77.86;99291.88;7360032;19;19922;-57
2022/01/09 06:22:04;;;;;;;;;;;;;;;4.71;77.46;99304.81;7356590;19;20730;-58
2022/01/09 06:24:29;;;;;;;;;;;;;;;4.70;77.62;99287.59;7362462;19;20506;-57
2022/01/09 06:26:55;;;;;;;;;;;;;;;4.71;77.96;99278.94;7362199;19;19935;-57
2022/01/09 06:29:20;;;;;;;;;;;;;;;4.71;77.88;99291.03;7362174;19;19914;-55
2022/01/09 06:31:45;;;;;;;;;;;;;;;4.72;77.61;99274.66;7362549;19;19956;-58
2022/01/09 06:34:12;;;;;;;;;;;;;;;4.72;78.02;99280.66;7356010;19;19929;-57
2022/01/09 06:36:37;;;;;;;;;;;;;;;4.72;77.84;99272.91;7362505;19;19947;-57
2022/01/09 06:39:03;;;;;;;;;;;;;;;4.72;77.88;99275.50;7359626;19;19918;-59
2022/01/09 06:41:28;;;;;;;;;;;;;;;4.75;77.99;99274.56;7360545;19;19937;-57
2022/01/09 06:43:53;;;;;;;;;;;;;;;4.75;78.08;99285.75;7361113;19;19935;-58
2022/01/09 06:46:18;;;;;;;;;;;;;;;4.76;78.12;99290.03;7359574;19;19907;-57
2022/01/09 06:48:44;;;;;;;;;;;;;;;4.78;78.08;99301.22;7355059;19;19923;-57
2022/01/09 06:51:10;;;;;;;;;;;;;;;4.78;77.62;99284.84;7355634;19;20556;-58
2022/01/09 06:53:35;;;;;;;;;;;;;;;4.78;77.94;99285.69;7362828;19;19923;-57
2022/01/09 06:56:00;;;;;;;;;;;;;;;4.78;77.86;99296.03;7361236;19;19986;-58
2022/01/09 06:58:26;;;;;;;;;;;;;;;4.80;77.62;99301.19;7360130;19;20066;-57
2022/01/09 07:00:52;;;;;;;;;;;;;;;4.79;78.01;99302.91;7363331;19;19927;-57
2022/01/09 07:03:18;;;;;;;;;;;;;;;4.80;77.64;99286.50;7357662;19;20449;-58
2022/01/09 07:05:43;;;;;;;;;;;;;;;4.80;77.68;99296.84;7361953;19;20352;-57
2022/01/09 07:08:08;;;;;;;;;;;;;;;4.81;77.74;99293.38;7359452;19;20014;-57
2022/01/09 07:10:34;;;;;;;;;;;;;;;4.82;77.72;99307.19;7356632;19;19937;-59
2022/01/09 07:12:59;;;;;;;;;;;;;;;4.84;78.03;99295.91;7359086;19;19958;-59
2022/01/09 07:15:24;;;;;;;;;;;;;;;4.85;78.18;99297.59;7358310;19;20018;-58
2022/01/09 07:17:50;;;;;;;;;;;;;;;4.87;77.81;99295.84;7360565;19;19918;-57
2022/01/09 07:20:15;;;;;;;;;;;;;;;4.89;78.00;99294.06;7355797;19;19951;-59
2022/01/09 07:22:40;;;;;;;;;;;;;;;4.91;77.88;99306.97;7360526;19;19929;-57
2022/01/09 07:25:06;;;;;;;;;;;;;;;4.92;77.88;99298.34;7360602;19;19944;-57
2022/01/09 07:27:32;;;;;;;;;;;;;;;4.92;77.72;99296.59;7355385;19;19927;-58
2022/01/09 07:29:58;;;;;;;;;;;;;;;4.94;77.53;99306.91;7361597;19;19919;-57
2022/01/09 07:32:23;;;;;;;;;;;;;;;4.93;77.99;99300.88;7356802;19;19962;-57
2022/01/09 07:34:48;;;;;;;;;;;;;;;4.94;77.73;99306.91;7355469;19;19918;-58
2022/01/09 07:37:13;;;;;;;;;;;;;;;4.95;77.87;99308.59;7362348;19;19930;-59
2022/01/09 07:39:39;;;;;;;;;;;;;;;4.93;77.61;99313.81;7360866;19;19922;-58
2022/01/09 07:42:05;;;;;;;;;;;;;;;4.94;77.63;99320.69;7362676;19;19919;-58
2022/01/09 07:44:30;;;;;;;;;;;;;;;4.94;77.53;99309.50;7346990;19;20375;-58
2022/01/09 07:46:55;;;;;;;;;;;;;;;4.94;77.71;99310.34;7360770;19;19926;-58
2022/01/09 07:49:22;;;;;;;;;;;;;;;4.92;78.08;99298.34;7360374;19;19927;-57
2022/01/09 07:51:47;;;;;;;;;;;;;;;4.92;77.93;99314.72;7361306;19;19918;-56
2022/01/09 07:54:12;;;;;;;;;;;;;;;4.92;77.57;99324.22;7368042;19;19950;-57
2022/01/09 07:56:38;;;;;;;;;;;;;;;4.91;77.98;99318.16;7359012;19;20391;-58
2022/01/09 07:59:03;;;;;;;;;;;;;;;4.91;77.64;99302.63;7358229;19;19914;-58
2022/01/09 08:01:28;;;;;;;;;;;;;;;4.92;78.00;99311.28;7368984;19;19923;-58
2022/01/09 08:03:54;;;;;;;;;;;;;;;4.92;78.01;99313.84;7367279;19;20006;-56
2022/01/09 08:06:19;;;;;;;;;;;;;;;4.93;77.79;99312.97;7364762;19;19919;-56
2022/01/09 08:08:44;;;;;;;;;;;;;;;4.92;77.63;99312.13;7361615;19;19914;-57
2022/01/09 08:11:09;;;;;;;;;;;;;;;4.93;77.86;99324.16;7366536;19;19925;-57
2022/01/09 08:13:35;;;;;;;;;;;;;;;4.94;77.76;99317.25;7364814;19;19927;-58
2022/01/09 08:16:00;;;;;;;;;;;;;;;4.93;77.72;99331.06;7364842;19;19922;-57
2022/01/09 08:18:25;;;;;;;;;;;;;;;4.92;77.75;99332.81;7370992;19;19918;-57
2022/01/09 08:20:50;;;;;;;;;;;;;;;4.93;77.89;99326.75;7352331;19;19919;-59
2022/01/09 08:23:17;;;;;;;;;;;;;;;4.93;77.97;99339.69;7364615;19;20047;-58
2022/01/09 08:25:43;;;;;;;;;;;;;;;4.93;77.78;99352.63;7365708;19;20392;-58
2022/01/09 08:28:08;;;;;;;;;;;;;;;4.92;77.79;99345.75;7368571;19;19930;-58
2022/01/09 08:30:33;;;;;;;;;;;;;;;4.92;77.72;99340.56;7369500;19;19950;-57
2022/01/09 08:32:59;;;;;;;;;;;;;;;4.94;77.96;99331.03;7361695;19;19918;-57
2022/01/09 08:35:24;;;;;;;;;;;;;;;4.95;78.07;99340.50;7366915;19;19994;-59
2022/01/09 08:37:49;;;;;;;;;;;;;;;4.95;77.77;99340.50;7367204;19;20449;-57
2022/01/09 08:40:21;;;;;;;;;;;;;;;4.97;78.05;99362.88;7358612;19;19921;-56
2022/01/09 08:42:47;;;;;;;;;;;;;;;4.98;77.63;99354.25;7369314;19;19958;-56
2022/01/09 08:45:13;;;;;;;;;;;;;;;4.99;78.06;99366.31;7369876;19;19923;-58
2022/01/09 08:47:38;;;;;;;;;;;;;;;5.00;77.87;99379.19;7359917;19;20340;-58
2022/01/09 08:50:04;;;;;;;;;;;;;;;5.00;77.60;99379.19;7368376;19;20265;-59
2022/01/09 08:52:29;;;;;;;;;;;;;;;5.03;77.93;99383.47;7368035;19;19982;-57
2022/01/09 08:54:55;;;;;;;;;;;;;;;5.04;78.07;99387.75;7366518;19;20025;-57
2022/01/09 08:57:20;;;;;;;;;;;;;;;5.05;77.75;99386.88;7368594;19;19925;-57
2022/01/09 08:59:45;;;;;;;;;;;;;;;5.06;78.04;99384.22;7362327;19;19914;-57
2022/01/09 09:02:11;;;;;;;;;;;;;;;5.08;78.15;99381.63;7365708;19;20074;-57
2022/01/09 09:04:38;;;;;;;;;;;;;;;5.10;77.67;99379.84;7366495;19;19911;-58
2022/01/09 09:07:03;;;;;;;;;;;;;;;5.10;77.93;99385.88;7359849;19;19919;-58
2022/01/09 09:09:28;;;;;;;;;;;;;;;5.11;77.90;99392.75;7357920;19;19974;-58
2022/01/09 09:11:54;;;;;;;;;;;;;;;5.13;77.84;99384.97;7364399;19;19923;-57
2022/01/09 09:14:20;;;;;;;;;;;;;;;5.12;77.87;99389.31;7365583;19;20545;-59
2022/01/09 09:16:46;;;;;;;;;;;;;;;5.12;77.81;99383.25;7365162;19;19918;-58
2022/01/09 09:19:11;;;;;;;;;;;;;;;5.13;77.66;99364.28;7362976;19;19923;-57
2022/01/09 09:21:36;;;;;;;;;;;;;;;5.14;77.88;99374.59;7367133;19;19933;-57
2022/01/09 09:24:02;;;;;;;;;;;;;;;5.14;77.53;99392.69;7362894;19;19922;-55
2022/01/09 09:26:27;;;;;;;;;;;;;;;5.15;77.72;99383.19;7367080;19;19998;-58
2022/01/09 09:28:52;;;;;;;;;;;;;;;5.14;77.78;99376.31;7360894;19;20276;-59
2022/01/09 09:31:18;;;;;;;;;;;;;;;5.15;77.43;99371.09;7364288;19;19960;-58
2022/01/09 09:33:43;;;;;;;;;;;;;;;5.15;77.34;99383.19;7367125;19;19974;-58
2022/01/09 09:36:09;;;;;;;;;;;;;;;5.15;77.50;99372.84;7364333;19;19944;-58
2022/01/09 09:38:34;;;;;;;;;;;;;;;5.16;77.74;99375.38;7366690;19;20493;-59
2022/01/09 09:40:59;;;;;;;;;;;;;;;5.17;78.00;99376.22;7361940;19;19923;-57
2022/01/09 09:43:25;;;;;;;;;;;;;;;5.21;77.63;99393.41;7354827;19;19919;-58
2022/01/09 09:45:53;;;;;;;;;;;;;;;5.25;77.91;99378.66;7366473;19;19911;-57
2022/01/09 09:48:19;;;;;;;;;;;;;;;5.29;78.19;99378.56;7358329;19;19919;-57
2022/01/09 09:50:45;;;;;;;;;;;;;;;5.33;77.80;99381.94;7358323;19;19951;-58
2022/01/09 09:53:10;;;;;;;;;;;;;;;5.40;78.08;99383.50;7368872;19;20028;-57
2022/01/09 09:55:36;;;;;;;;;;;;;;;5.43;77.99;99392.06;7367200;19;19922;-56
2022/01/09 09:58:01;;;;;;;;;;;;;;;5.51;78.09;99385.84;7358021;19;19957;-57
2022/01/09 10:00:26;;;;;;;;;;;;;;;5.58;77.79;99392.59;7366348;19;19930;-57
2022/01/09 10:02:56;;;;;;;;;;;;;;;5.66;77.96;99395.84;7362210;19;19918;-58
2022/01/09 10:05:23;;;;;;;;;;;;;;;5.72;77.89;99401.72;7365072;19;20344;-59
2022/01/09 10:07:48;;;;;;;;;;;;;;;5.77;77.72;99393.84;7365552;19;19952;-58
2022/01/09 10:10:15;;;;;;;;;;;;;;;5.83;77.68;99401.47;7360484;19;20368;-57
2022/01/09 10:12:42;;;;;;;;;;;;;;;5.87;77.54;99400.50;7362944;19;20002;-58
2022/01/09 10:15:09;;;;;;;;;;;;;;;5.92;77.34;99414.22;7359038;19;19923;-58
2022/01/09 10:17:34;;;;;;;;;;;;;;;5.97;77.74;99407.19;7365334;19;19955;-58
2022/01/09 10:20:08;;;;;;;;;;;;;;;6.03;77.69;99415.69;7366137;19;19966;-59
2022/01/09 10:22:44;;;;;;;;;;;;;;;6.08;77.41;99413.84;7366018;19;19919;-59
2022/01/09 10:25:15;;;;;;;;;;;;;;;6.13;77.46;99412.00;7361600;19;20270;-59
2022/01/09 10:27:41;;;;;;;;;;;;;;;6.16;77.46;99414.50;7364452;19;19923;-58
2022/01/09 10:30:06;;;;;;;;;;;;;;;6.20;77.37;99413.56;7367182;19;19923;-57
2022/01/09 10:32:32;;;;;;;;;;;;;;;6.24;77.25;99415.19;7353231;19;20636;-57
2022/01/09 10:35:03;;;;;;;;;;;;;;;6.26;77.02;99418.56;7352416;19;20675;-59
2022/01/09 10:37:29;;;;;;;;;;;;;;;6.31;77.22;99424.50;7362441;19;20379;-56
2022/01/09 10:39:57;;;;;;;;;;;;;;;6.37;77.03;99426.91;7357752;19;19925;-57
2022/01/09 10:42:22;;;;;;;;;;;;;;;6.43;76.95;99426.75;7357330;19;19911;-58
2022/01/09 10:44:48;;;;;;;;;;;;;;;6.52;76.98;99430.00;7361258;19;20326;-57
2022/01/09 10:47:15;;;;;;;;;;;;;;;6.63;77.24;99427.97;7363654;19;19917;-57
2022/01/09 10:49:43;;;;;;;;;;;;;;;6.77;77.55;99425.84;7357391;19;19968;-59
2022/01/09 10:52:22;;;;;;;;;;;;;;;6.95;77.73;99425.34;7363322;19;19982;-59
2022/01/09 10:54:48;;;;;;;;;;;;;;;7.21;77.27;99447.13;7362841;19;19936;-59
2022/01/09 10:57:13;;;;;;;;;;;;;;;7.38;77.17;99438.81;7363967;19;19915;-58
2022/01/09 10:59:38;;;;;;;;;;;;;;;7.50;77.00;99444.50;7357586;19;19935;-58
2022/01/09 11:02:04;;;;;;;;;;;;;;;7.68;76.70;99453.47;7366820;19;19926;-59
2022/01/09 11:04:30;;;;;;;;;;;;;;;7.87;76.66;99453.75;7365039;19;20446;-58
2022/01/09 11:06:55;;;;;;;;;;;;;;;8.04;76.67;99455.81;7365650;19;20358;-57
2022/01/09 11:09:22;;;;;;;;;;;;;;;8.21;75.99;99457.84;7358316;19;19947;-56
2022/01/09 11:11:48;;;;;;;;;;;;;;;8.33;75.51;99462.66;7362794;19;19911;-59
2022/01/09 11:14:19;;;;;;;;;;;;;;;8.39;75.32;99465.09;7361762;19;20657;-57
2022/01/09 11:16:52;;;;;;;;;;;;;;;8.45;74.70;99462.28;7357021;19;19922;-58
2022/01/09 11:19:21;;;;;;;;;;;;;;;8.47;74.74;99451.84;7362201;19;19911;-56
2022/01/09 11:21:59;;;;;;;;;;;;;;;8.47;74.32;99450.09;7360923;19;19918;-57
2022/01/09 11:24:31;;;;;;;;;;;;;;;8.49;74.54;99452.63;7356828;19;19919;-57
2022/01/09 11:27:02;;;;;;;;;;;;;;;8.58;74.96;99471.38;7369997;19;19922;-59
2022/01/09 11:29:36;;;;;;;;;;;;;;;8.76;75.76;99462.06;7370143;19;19986;-59
2022/01/09 11:32:07;;;;;;;;;;;;;;;8.99;75.31;99469.06;7366022;19;19926;-57
2022/01/09 11:34:56;;;;;;;;;;;;;;;9.22;75.50;99454.34;7361581;19;19914;-57
2022/01/09 11:37:46;;;;;;;;;;;;;;;9.46;74.80;99463.84;7364110;19;19978;-57
2022/01/09 11:40:25;;;;;;;;;;;;;;;9.65;73.97;99468.38;7366823;19;19935;-57
2022/01/09 11:43:11;;;;;;;;;;;;;;;9.75;74.11;99464.50;7363344;19;19918;-58
2022/01/09 11:45:48;;;;;;;;;;;;;;;9.88;73.97;99468.31;7369445;19;19911;-58
2022/01/09 11:48:18;;;;;;;;;;;;;;;9.97;73.75;99475.78;7363393;19;19915;-57
2022/01/09 11:51:02;;;;;;;;;;;;;;;10.06;73.35;99475.41;7369027;19;19915;-59
2022/01/09 11:53:27;;;;;;;;;;;;;;;10.14;73.37;99475.97;7364332;19;20336;-57
2022/01/09 11:55:53;;;;;;;;;;;;;;;10.26;73.35;99471.19;7364203;19;19974;-56
2022/01/09 11:58:20;;;;;;;;;;;;;;;10.39;72.74;99482.78;7369464;19;19966;-57
2022/01/09 12:00:45;;;;;;;;;;;;;;;10.50;72.61;99485.84;7372788;19;19915;-58
2022/01/09 12:03:26;;;;;;;;;;;;;;;10.62;72.92;99487.91;7364855;19;19929;-57
2022/01/09 12:06:01;;;;;;;;;;;;;;;10.77;72.79;99482.97;7365882;19;20336;-58
2022/01/09 12:08:26;;;;;;;;;;;;;;;10.94;72.27;99493.50;7363708;19;19956;-58
2022/01/09 12:10:53;;;;;;;;;;;;;;;11.04;71.39;99476.53;7366269;19;19929;-59
2022/01/09 12:13:37;;;;;;;;;;;;;;;11.12;71.09;99487.50;7362416;19;20381;-58
2022/01/09 12:16:02;;;;;;;;;;;;;;;11.16;70.81;99476.00;7365030;19;20957;-58
2022/01/09 12:18:45;;;;;;;;;;;;;;;11.18;70.50;99486.38;7366040;19;19929;-57
2022/01/09 12:21:30;;;;;;;;;;;;;;;11.10;70.01;99471.06;7361858;19;20332;-58
2022/01/09 12:24:15;;;;;;;;;;;;;;;11.01;69.50;99484.50;7363925;19;19928;-58
2022/01/09 12:26:40;;;;;;;;;;;;;;;10.91;69.75;99478.00;7361636;19;19942;-57
2022/01/09 12:29:06;;;;;;;;;;;;;;;10.84;70.12;99477.38;7362169;19;19978;-58
2022/01/09 12:31:31;;;;;;;;;;;;;;;10.79;70.20;99486.34;7370126;19;19923;-58
2022/01/09 12:33:57;;;;;;;;;;;;;;;10.74;70.08;99483.06;7366455;19;20008;-59
2022/01/09 12:36:24;;;;;;;;;;;;;;;10.69;70.50;99495.47;7362981;19;19927;-57
2022/01/09 12:38:56;;;;;;;;;;;;;;;10.62;70.49;99500.97;7361878;19;20336;-57
2022/01/09 12:41:29;;;;;;;;;;;;;;;10.55;70.36;99499.53;7367922;19;20571;-57
2022/01/09 12:44:04;;;;;;;;;;;;;;;10.49;70.53;99507.63;7362830;19;19978;-58
2022/01/09 12:46:30;;;;;;;;;;;;;;;10.45;70.94;99498.22;7361747;19;19926;-58
2022/01/09 12:48:57;;;;;;;;;;;;;;;10.43;70.90;99510.47;7367587;19;19923;-59
2022/01/09 12:51:22;;;;;;;;;;;;;;;10.43;70.71;99505.25;7367035;19;19919;-57
2022/01/09 12:53:49;;;;;;;;;;;;;;;10.44;70.66;99511.31;7361560;19;19974;-57